sensor_id;sensor_type;location;lat;lon;timestamp;temperature;humidity
63013;DHT22;62113;45.624;11.700;2024-01-06T00:01:38;11.70;77.00
63013;DHT22;62113;45.624;11.700;2024-01-06T00:04:04;11.70;77.00
63013;DHT22;62113;45.624;11.700;2024-01-06T00:06:30;11.70;77.00
63013;DHT22;62113;45.624;11.700;2024-01-06T00:08:56;11.70;77.00
63013;DHT22;62113;45.624;11.700;2024-01-06T00:11:22;11.70;76.90
63013;DHT22;62113;45.624;11.700;2024-01-06T00:13:47;11.70;76.90
63013;DHT22;62113;45.624;11.700;2024-01-06T00:16:16;11.60;76.80
63013;DHT22;62113;45.624;11.700;2024-01-06T00:18:43;11.60;76.80
63013;DHT22;62113;45.624;11.700;2024-01-06T00:21:08;11.60;76.70
63013;DHT22;62113;45.624;11.700;2024-01-06T00:23:34;11.60;76.70
63013;DHT22;62113;45.624;11.700;2024-01-06T00:26:00;11.60;76.70
63013;DHT22;62113;45.624;11.700;2024-01-06T00:28:25;11.60;76.70
63013;DHT22;62113;45.624;11.700;2024-01-06T00:30:51;11.60;76.60
63013;DHT22;62113;45.624;11.700;2024-01-06T00:33:16;11.60;76.70
63013;DHT22;62113;45.624;11.700;2024-01-06T00:35:42;11.60;76.60
63013;DHT22;62113;45.624;11.700;2024-01-06T00:38:08;11.60;76.60
63013;DHT22;62113;45.624;11.700;2024-01-06T00:40:34;11.50;76.50
63013;DHT22;62113;45.624;11.700;2024-01-06T00:42:59;11.60;76.50
63013;DHT22;62113;45.624;11.700;2024-01-06T00:45:25;11.60;76.50
63013;DHT22;62113;45.624;11.700;2024-01-06T00:47:50;11.60;76.50
63013;DHT22;62113;45.624;11.700;2024-01-06T00:50:18;11.50;76.50
63013;DHT22;62113;45.624;11.700;2024-01-06T00:52:44;11.50;76.50
63013;DHT22;62113;45.624;11.700;2024-01-06T00:55:10;11.60;76.50
63013;DHT22;62113;45.624;11.700;2024-01-06T00:57:35;11.60;76.50
63013;DHT22;62113;45.624;11.700;2024-01-06T01:00:03;11.50;76.50
63013;DHT22;62113;45.624;11.700;2024-01-06T01:02:28;11.60;76.50
63013;DHT22;62113;45.624;11.700;2024-01-06T01:04:54;11.60;76.50
63013;DHT22;62113;45.624;11.700;2024-01-06T01:07:20;11.60;76.60
63013;DHT22;62113;45.624;11.700;2024-01-06T01:09:45;11.60;76.60
63013;DHT22;62113;45.624;11.700;2024-01-06T01:12:11;11.60;76.60
63013;DHT22;62113;45.624;11.700;2024-01-06T01:14:36;11.60;76.50
63013;DHT22;62113;45.624;11.700;2024-01-06T01:17:02;11.60;76.50
63013;DHT22;62113;45.624;11.700;2024-01-06T01:19:28;11.70;76.50
63013;DHT22;62113;45.624;11.700;2024-01-06T01:21:53;11.70;76.40
63013;DHT22;62113;45.624;11.700;2024-01-06T01:24:24;11.60;76.50
63013;DHT22;62113;45.624;11.700;2024-01-06T01:26:49;11.60;76.50
63013;DHT22;62113;45.624;11.700;2024-01-06T01:29:16;11.60;76.60
63013;DHT22;62113;45.624;11.700;2024-01-06T01:31:42;11.60;76.60
63013;DHT22;62113;45.624;11.700;2024-01-06T01:34:08;11.60;76.60
63013;DHT22;62113;45.624;11.700;2024-01-06T01:36:33;11.60;76.60
63013;DHT22;62113;45.624;11.700;2024-01-06T01:38:59;11.60;76.60
63013;DHT22;62113;45.624;11.700;2024-01-06T01:41:25;11.60;76.60
63013;DHT22;62113;45.624;11.700;2024-01-06T01:43:50;11.60;76.50
63013;DHT22;62113;45.624;11.700;2024-01-06T01:46:27;11.60;76.60
63013;DHT22;62113;45.624;11.700;2024-01-06T01:48:54;11.60;76.50
63013;DHT22;62113;45.624;11.700;2024-01-06T01:51:20;11.60;76.50
63013;DHT22;62113;45.624;11.700;2024-01-06T01:53:47;11.60;76.50
63013;DHT22;62113;45.624;11.700;2024-01-06T01:56:12;11.60;76.50
63013;DHT22;62113;45.624;11.700;2024-01-06T01:58:38;11.60;76.50
63013;DHT22;62113;45.624;11.700;2024-01-06T02:01:04;11.60;76.40
63013;DHT22;62113;45.624;11.700;2024-01-06T02:03:30;11.60;76.40
63013;DHT22;62113;45.624;11.700;2024-01-06T02:05:56;11.50;76.30
63013;DHT22;62113;45.624;11.700;2024-01-06T02:08:22;11.50;76.20
63013;DHT22;62113;45.624;11.700;2024-01-06T02:10:47;11.50;76.10
63013;DHT22;62113;45.624;11.700;2024-01-06T02:13:13;11.50;76.10
63013;DHT22;62113;45.624;11.700;2024-01-06T02:15:39;11.50;76.10
63013;DHT22;62113;45.624;11.700;2024-01-06T02:18:05;11.50;76.00
63013;DHT22;62113;45.624;11.700;2024-01-06T02:20:31;11.60;75.80
63013;DHT22;62113;45.624;11.700;2024-01-06T02:22:57;11.70;75.60
63013;DHT22;62113;45.624;11.700;2024-01-06T02:25:24;11.60;75.50
63013;DHT22;62113;45.624;11.700;2024-01-06T02:27:50;11.60;75.50
63013;DHT22;62113;45.624;11.700;2024-01-06T02:30:16;11.60;75.40
63013;DHT22;62113;45.624;11.700;2024-01-06T02:32:41;11.60;75.30
63013;DHT22;62113;45.624;11.700;2024-01-06T02:35:07;11.70;75.30
63013;DHT22;62113;45.624;11.700;2024-01-06T02:37:33;11.70;75.20
63013;DHT22;62113;45.624;11.700;2024-01-06T02:39:58;11.60;75.20
63013;DHT22;62113;45.624;11.700;2024-01-06T02:42:24;11.60;75.20
63013;DHT22;62113;45.624;11.700;2024-01-06T02:44:50;11.60;75.10
63013;DHT22;62113;45.624;11.700;2024-01-06T02:47:16;11.60;75.10
63013;DHT22;62113;45.624;11.700;2024-01-06T02:49:42;11.60;75.10
63013;DHT22;62113;45.624;11.700;2024-01-06T02:52:08;11.60;75.00
63013;DHT22;62113;45.624;11.700;2024-01-06T02:54:33;11.60;75.00
63013;DHT22;62113;45.624;11.700;2024-01-06T02:56:59;11.60;75.00
63013;DHT22;62113;45.624;11.700;2024-01-06T02:59:25;11.60;74.90
63013;DHT22;62113;45.624;11.700;2024-01-06T03:01:50;11.60;74.90
63013;DHT22;62113;45.624;11.700;2024-01-06T03:04:16;11.60;74.90
63013;DHT22;62113;45.624;11.700;2024-01-06T03:06:41;11.60;74.90
63013;DHT22;62113;45.624;11.700;2024-01-06T03:09:07;11.60;74.80
63013;DHT22;62113;45.624;11.700;2024-01-06T03:11:32;11.60;74.80
63013;DHT22;62113;45.624;11.700;2024-01-06T03:13:58;11.60;74.70
63013;DHT22;62113;45.624;11.700;2024-01-06T03:16:24;11.60;74.70
63013;DHT22;62113;45.624;11.700;2024-01-06T03:18:49;11.60;74.60
63013;DHT22;62113;45.624;11.700;2024-01-06T03:21:21;11.70;74.50
63013;DHT22;62113;45.624;11.700;2024-01-06T03:23:48;11.70;74.50
63013;DHT22;62113;45.624;11.700;2024-01-06T03:26:13;11.60;74.40
63013;DHT22;62113;45.624;11.700;2024-01-06T03:28:39;11.60;74.40
63013;DHT22;62113;45.624;11.700;2024-01-06T03:31:05;11.60;74.50
63013;DHT22;62113;45.624;11.700;2024-01-06T03:33:30;11.50;74.60
63013;DHT22;62113;45.624;11.700;2024-01-06T03:35:56;11.60;74.60
63013;DHT22;62113;45.624;11.700;2024-01-06T03:38:22;11.60;74.70
63013;DHT22;62113;45.624;11.700;2024-01-06T03:40:47;11.60;74.60
63013;DHT22;62113;45.624;11.700;2024-01-06T03:43:13;11.60;74.60
63013;DHT22;62113;45.624;11.700;2024-01-06T03:45:38;11.50;74.60
63013;DHT22;62113;45.624;11.700;2024-01-06T03:48:04;11.60;74.60
63013;DHT22;62113;45.624;11.700;2024-01-06T03:50:30;11.60;74.60
63013;DHT22;62113;45.624;11.700;2024-01-06T03:52:55;11.60;74.60
63013;DHT22;62113;45.624;11.700;2024-01-06T03:55:21;11.60;74.50
63013;DHT22;62113;45.624;11.700;2024-01-06T03:57:47;11.60;74.50
63013;DHT22;62113;45.624;11.700;2024-01-06T04:00:13;11.60;74.40
63013;DHT22;62113;45.624;11.700;2024-01-06T04:02:39;11.60;74.50
63013;DHT22;62113;45.624;11.700;2024-01-06T04:05:04;11.50;74.50
63013;DHT22;62113;45.624;11.700;2024-01-06T04:07:30;11.60;74.50
63013;DHT22;62113;45.624;11.700;2024-01-06T04:09:56;11.50;74.50
63013;DHT22;62113;45.624;11.700;2024-01-06T04:12:21;11.50;74.60
63013;DHT22;62113;45.624;11.700;2024-01-06T04:14:47;11.60;74.60
63013;DHT22;62113;45.624;11.700;2024-01-06T04:17:13;11.60;74.70
63013;DHT22;62113;45.624;11.700;2024-01-06T04:19:38;11.50;74.60
63013;DHT22;62113;45.624;11.700;2024-01-06T04:22:04;11.60;74.70
63013;DHT22;62113;45.624;11.700;2024-01-06T04:24:29;11.60;74.70
63013;DHT22;62113;45.624;11.700;2024-01-06T04:26:55;11.60;74.70
63013;DHT22;62113;45.624;11.700;2024-01-06T04:29:21;11.50;74.80
63013;DHT22;62113;45.624;11.700;2024-01-06T04:31:46;11.60;74.80
63013;DHT22;62113;45.624;11.700;2024-01-06T04:34:12;11.60;74.80
63013;DHT22;62113;45.624;11.700;2024-01-06T04:36:38;11.60;74.90
63013;DHT22;62113;45.624;11.700;2024-01-06T04:39:03;11.60;74.90
63013;DHT22;62113;45.624;11.700;2024-01-06T04:41:29;11.60;74.70
63013;DHT22;62113;45.624;11.700;2024-01-06T04:43:54;11.60;74.80
63013;DHT22;62113;45.624;11.700;2024-01-06T04:46:20;11.60;74.90
63013;DHT22;62113;45.624;11.700;2024-01-06T04:48:47;11.60;74.90
63013;DHT22;62113;45.624;11.700;2024-01-06T04:51:12;11.70;75.00
63013;DHT22;62113;45.624;11.700;2024-01-06T04:53:39;11.70;74.90
63013;DHT22;62113;45.624;11.700;2024-01-06T04:56:04;11.70;75.00
63013;DHT22;62113;45.624;11.700;2024-01-06T04:58:30;11.70;75.10
63013;DHT22;62113;45.624;11.700;2024-01-06T05:00:56;11.70;75.20
63013;DHT22;62113;45.624;11.700;2024-01-06T05:03:22;11.70;75.20
63013;DHT22;62113;45.624;11.700;2024-01-06T05:05:47;11.70;75.20
63013;DHT22;62113;45.624;11.700;2024-01-06T05:08:13;11.70;75.30
63013;DHT22;62113;45.624;11.700;2024-01-06T05:10:38;11.70;75.30
63013;DHT22;62113;45.624;11.700;2024-01-06T05:13:04;11.70;75.30
63013;DHT22;62113;45.624;11.700;2024-01-06T05:15:29;11.80;75.40
63013;DHT22;62113;45.624;11.700;2024-01-06T05:17:55;11.80;75.40
63013;DHT22;62113;45.624;11.700;2024-01-06T05:20:21;11.80;75.40
63013;DHT22;62113;45.624;11.700;2024-01-06T05:22:46;11.80;75.40
63013;DHT22;62113;45.624;11.700;2024-01-06T05:25:12;11.80;75.40
63013;DHT22;62113;45.624;11.700;2024-01-06T05:27:37;11.80;75.40
63013;DHT22;62113;45.624;11.700;2024-01-06T05:30:03;11.80;75.30
63013;DHT22;62113;45.624;11.700;2024-01-06T05:32:29;11.80;75.40
63013;DHT22;62113;45.624;11.700;2024-01-06T05:34:55;11.80;75.50
63013;DHT22;62113;45.624;11.700;2024-01-06T05:37:20;11.80;75.40
63013;DHT22;62113;45.624;11.700;2024-01-06T05:39:46;11.80;75.20
63013;DHT22;62113;45.624;11.700;2024-01-06T05:42:13;11.80;75.20
63013;DHT22;62113;45.624;11.700;2024-01-06T05:44:40;11.80;75.20
63013;DHT22;62113;45.624;11.700;2024-01-06T05:47:05;11.80;75.10
63013;DHT22;62113;45.624;11.700;2024-01-06T05:49:32;11.80;75.00
63013;DHT22;62113;45.624;11.700;2024-01-06T05:51:57;11.80;75.00
63013;DHT22;62113;45.624;11.700;2024-01-06T05:54:23;11.70;75.10
63013;DHT22;62113;45.624;11.700;2024-01-06T05:56:48;11.80;74.90
63013;DHT22;62113;45.624;11.700;2024-01-06T05:59:14;11.80;74.90
63013;DHT22;62113;45.624;11.700;2024-01-06T06:01:40;11.70;75.00
63013;DHT22;62113;45.624;11.700;2024-01-06T06:04:06;11.70;75.00
63013;DHT22;62113;45.624;11.700;2024-01-06T06:06:31;11.70;74.90
63013;DHT22;62113;45.624;11.700;2024-01-06T06:08:58;11.70;74.80
63013;DHT22;62113;45.624;11.700;2024-01-06T06:11:23;11.70;74.70
63013;DHT22;62113;45.624;11.700;2024-01-06T06:13:49;11.70;74.60
63013;DHT22;62113;45.624;11.700;2024-01-06T06:16:15;11.70;74.50
63013;DHT22;62113;45.624;11.700;2024-01-06T06:18:40;11.70;74.50
63013;DHT22;62113;45.624;11.700;2024-01-06T06:21:07;11.70;74.50
63013;DHT22;62113;45.624;11.700;2024-01-06T06:23:33;11.60;74.40
63013;DHT22;62113;45.624;11.700;2024-01-06T06:25:59;11.70;74.40
63013;DHT22;62113;45.624;11.700;2024-01-06T06:28:28;11.70;74.30
63013;DHT22;62113;45.624;11.700;2024-01-06T06:30:54;11.60;74.30
63013;DHT22;62113;45.624;11.700;2024-01-06T06:33:19;11.60;74.30
63013;DHT22;62113;45.624;11.700;2024-01-06T06:35:45;11.60;74.30
63013;DHT22;62113;45.624;11.700;2024-01-06T06:38:10;11.60;74.30
63013;DHT22;62113;45.624;11.700;2024-01-06T06:40:36;11.60;74.30
63013;DHT22;62113;45.624;11.700;2024-01-06T06:43:02;11.60;74.30
63013;DHT22;62113;45.624;11.700;2024-01-06T06:45:28;11.60;74.30
63013;DHT22;62113;45.624;11.700;2024-01-06T06:47:54;11.60;74.30
63013;DHT22;62113;45.624;11.700;2024-01-06T06:50:20;11.60;74.30
63013;DHT22;62113;45.624;11.700;2024-01-06T06:52:46;11.50;74.30
63013;DHT22;62113;45.624;11.700;2024-01-06T06:55:12;11.50;74.40
63013;DHT22;62113;45.624;11.700;2024-01-06T06:57:38;11.60;74.40
63013;DHT22;62113;45.624;11.700;2024-01-06T07:00:04;11.60;74.40
63013;DHT22;62113;45.624;11.700;2024-01-06T07:02:33;11.60;74.40
63013;DHT22;62113;45.624;11.700;2024-01-06T07:04:58;11.60;74.50
63013;DHT22;62113;45.624;11.700;2024-01-06T07:07:24;11.60;74.40
63013;DHT22;62113;45.624;11.700;2024-01-06T07:09:50;11.70;74.50
63013;DHT22;62113;45.624;11.700;2024-01-06T07:12:15;11.60;74.50
63013;DHT22;62113;45.624;11.700;2024-01-06T07:14:41;11.70;74.60
63013;DHT22;62113;45.624;11.700;2024-01-06T07:17:06;11.70;74.60
63013;DHT22;62113;45.624;11.700;2024-01-06T07:19:33;11.60;74.60
63013;DHT22;62113;45.624;11.700;2024-01-06T07:21:58;11.70;74.70
63013;DHT22;62113;45.624;11.700;2024-01-06T07:24:24;11.70;74.70
63013;DHT22;62113;45.624;11.700;2024-01-06T07:26:50;11.70;74.80
63013;DHT22;62113;45.624;11.700;2024-01-06T07:29:15;11.70;74.90
63013;DHT22;62113;45.624;11.700;2024-01-06T07:31:41;11.70;74.80
63013;DHT22;62113;45.624;11.700;2024-01-06T07:34:06;11.70;74.80
63013;DHT22;62113;45.624;11.700;2024-01-06T07:36:32;11.70;74.90
63013;DHT22;62113;45.624;11.700;2024-01-06T07:38:58;11.70;75.00
63013;DHT22;62113;45.624;11.700;2024-01-06T07:41:23;11.70;75.00
63013;DHT22;62113;45.624;11.700;2024-01-06T07:43:49;11.70;75.00
63013;DHT22;62113;45.624;11.700;2024-01-06T07:46:15;11.70;74.90
63013;DHT22;62113;45.624;11.700;2024-01-06T07:48:40;11.70;75.00
63013;DHT22;62113;45.624;11.700;2024-01-06T07:51:06;11.70;75.30
63013;DHT22;62113;45.624;11.700;2024-01-06T07:53:32;11.80;75.50
63013;DHT22;62113;45.624;11.700;2024-01-06T07:55:58;11.80;75.60
63013;DHT22;62113;45.624;11.700;2024-01-06T07:58:24;11.90;75.80
63013;DHT22;62113;45.624;11.700;2024-01-06T08:00:49;11.80;75.70
63013;DHT22;62113;45.624;11.700;2024-01-06T08:03:15;11.90;75.60
63013;DHT22;62113;45.624;11.700;2024-01-06T08:05:41;11.90;75.50
63013;DHT22;62113;45.624;11.700;2024-01-06T08:08:07;12.00;75.50
63013;DHT22;62113;45.624;11.700;2024-01-06T08:10:33;12.00;75.60
63013;DHT22;62113;45.624;11.700;2024-01-06T08:12:58;12.00;75.50
63013;DHT22;62113;45.624;11.700;2024-01-06T08:15:24;12.10;75.30
63013;DHT22;62113;45.624;11.700;2024-01-06T08:17:50;12.10;75.30
63013;DHT22;62113;45.624;11.700;2024-01-06T08:20:15;12.10;75.30
63013;DHT22;62113;45.624;11.700;2024-01-06T08:22:41;12.10;75.30
63013;DHT22;62113;45.624;11.700;2024-01-06T08:25:07;12.20;75.20
63013;DHT22;62113;45.624;11.700;2024-01-06T08:27:33;12.20;75.20
63013;DHT22;62113;45.624;11.700;2024-01-06T08:29:59;12.20;75.10
63013;DHT22;62113;45.624;11.700;2024-01-06T08:32:25;12.20;75.00
63013;DHT22;62113;45.624;11.700;2024-01-06T08:34:50;12.20;74.90
63013;DHT22;62113;45.624;11.700;2024-01-06T08:37:16;12.30;74.90
63013;DHT22;62113;45.624;11.700;2024-01-06T08:39:42;12.30;74.80
63013;DHT22;62113;45.624;11.700;2024-01-06T08:42:07;12.30;74.70
63013;DHT22;62113;45.624;11.700;2024-01-06T08:44:33;12.30;74.70
63013;DHT22;62113;45.624;11.700;2024-01-06T08:46:59;12.30;74.60
63013;DHT22;62113;45.624;11.700;2024-01-06T08:49:24;12.30;74.50
63013;DHT22;62113;45.624;11.700;2024-01-06T08:51:50;12.30;74.50
63013;DHT22;62113;45.624;11.700;2024-01-06T08:54:15;12.30;74.50
63013;DHT22;62113;45.624;11.700;2024-01-06T08:56:41;12.40;74.40
63013;DHT22;62113;45.624;11.700;2024-01-06T08:59:07;12.40;74.40
63013;DHT22;62113;45.624;11.700;2024-01-06T09:01:32;12.30;74.30
63013;DHT22;62113;45.624;11.700;2024-01-06T09:04:01;12.30;74.40
63013;DHT22;62113;45.624;11.700;2024-01-06T09:06:27;12.40;74.40
63013;DHT22;62113;45.624;11.700;2024-01-06T09:08:52;12.40;74.40
63013;DHT22;62113;45.624;11.700;2024-01-06T09:11:18;12.40;74.40
63013;DHT22;62113;45.624;11.700;2024-01-06T09:13:44;12.40;74.30
63013;DHT22;62113;45.624;11.700;2024-01-06T09:16:09;12.40;74.30
63013;DHT22;62113;45.624;11.700;2024-01-06T09:18:36;12.40;74.30
63013;DHT22;62113;45.624;11.700;2024-01-06T09:21:01;12.40;74.30
63013;DHT22;62113;45.624;11.700;2024-01-06T09:23:28;12.40;74.30
63013;DHT22;62113;45.624;11.700;2024-01-06T09:25:54;12.40;74.20
63013;DHT22;62113;45.624;11.700;2024-01-06T09:28:20;12.40;74.20
63013;DHT22;62113;45.624;11.700;2024-01-06T09:30:47;12.40;74.20
63013;DHT22;62113;45.624;11.700;2024-01-06T09:33:12;12.40;74.10
63013;DHT22;62113;45.624;11.700;2024-01-06T09:35:41;12.30;74.20
63013;DHT22;62113;45.624;11.700;2024-01-06T09:38:07;12.30;74.10
63013;DHT22;62113;45.624;11.700;2024-01-06T09:40:34;12.40;74.20
63013;DHT22;62113;45.624;11.700;2024-01-06T09:43:00;12.30;74.20
63013;DHT22;62113;45.624;11.700;2024-01-06T09:45:28;12.30;74.10
63013;DHT22;62113;45.624;11.700;2024-01-06T09:47:54;12.40;74.10
63013;DHT22;62113;45.624;11.700;2024-01-06T09:50:21;12.40;74.00
63013;DHT22;62113;45.624;11.700;2024-01-06T09:52:48;12.30;74.00
63013;DHT22;62113;45.624;11.700;2024-01-06T09:55:25;12.30;74.00
63013;DHT22;62113;45.624;11.700;2024-01-06T09:57:54;12.30;74.00
63013;DHT22;62113;45.624;11.700;2024-01-06T10:00:20;12.30;74.10
63013;DHT22;62113;45.624;11.700;2024-01-06T10:02:49;12.30;74.00
63013;DHT22;62113;45.624;11.700;2024-01-06T10:05:17;12.30;74.00
63013;DHT22;62113;45.624;11.700;2024-01-06T10:07:44;12.30;74.20
63013;DHT22;62113;45.624;11.700;2024-01-06T10:10:10;12.30;74.20
63013;DHT22;62113;45.624;11.700;2024-01-06T10:12:40;12.30;74.10
63013;DHT22;62113;45.624;11.700;2024-01-06T10:15:10;12.30;74.20
63013;DHT22;62113;45.624;11.700;2024-01-06T10:17:38;12.30;74.10
63013;DHT22;62113;45.624;11.700;2024-01-06T10:20:09;12.30;74.10
63013;DHT22;62113;45.624;11.700;2024-01-06T10:22:36;12.30;74.10
63013;DHT22;62113;45.624;11.700;2024-01-06T10:25:04;12.30;74.10
63013;DHT22;62113;45.624;11.700;2024-01-06T10:27:29;12.30;74.10
63013;DHT22;62113;45.624;11.700;2024-01-06T10:29:55;12.30;74.10
63013;DHT22;62113;45.624;11.700;2024-01-06T10:32:21;12.30;74.10
63013;DHT22;62113;45.624;11.700;2024-01-06T10:34:47;12.30;74.20
63013;DHT22;62113;45.624;11.700;2024-01-06T10:37:12;12.30;74.10
63013;DHT22;62113;45.624;11.700;2024-01-06T10:39:38;12.30;74.10
63013;DHT22;62113;45.624;11.700;2024-01-06T10:42:04;12.30;74.10
63013;DHT22;62113;45.624;11.700;2024-01-06T10:44:31;12.30;74.20
63013;DHT22;62113;45.624;11.700;2024-01-06T10:46:58;12.30;74.10
63013;DHT22;62113;45.624;11.700;2024-01-06T10:49:25;12.30;74.20
63013;DHT22;62113;45.624;11.700;2024-01-06T10:51:53;12.30;74.10
63013;DHT22;62113;45.624;11.700;2024-01-06T10:54:21;12.30;74.10
63013;DHT22;62113;45.624;11.700;2024-01-06T10:56:47;12.30;74.00
63013;DHT22;62113;45.624;11.700;2024-01-06T10:59:14;12.30;74.00
63013;DHT22;62113;45.624;11.700;2024-01-06T11:01:41;12.30;74.00
63013;DHT22;62113;45.624;11.700;2024-01-06T11:04:07;12.30;74.00
63013;DHT22;62113;45.624;11.700;2024-01-06T11:06:33;12.30;74.00
63013;DHT22;62113;45.624;11.700;2024-01-06T11:09:36;12.30;74.00
63013;DHT22;62113;45.624;11.700;2024-01-06T11:12:03;12.30;74.00
63013;DHT22;62113;45.624;11.700;2024-01-06T11:14:28;12.30;74.00
63013;DHT22;62113;45.624;11.700;2024-01-06T11:16:54;12.30;74.00
63013;DHT22;62113;45.624;11.700;2024-01-06T11:24:51;12.30;74.00
63013;DHT22;62113;45.624;11.700;2024-01-06T11:27:23;12.30;74.10
63013;DHT22;62113;45.624;11.700;2024-01-06T11:29:51;12.30;74.10
63013;DHT22;62113;45.624;11.700;2024-01-06T11:32:24;12.20;74.10
63013;DHT22;62113;45.624;11.700;2024-01-06T11:34:51;12.20;74.20
63013;DHT22;62113;45.624;11.700;2024-01-06T11:38:06;12.20;74.20
63013;DHT22;62113;45.624;11.700;2024-01-06T11:40:31;12.20;74.30
63013;DHT22;62113;45.624;11.700;2024-01-06T11:45:25;12.20;74.30
63013;DHT22;62113;45.624;11.700;2024-01-06T11:48:04;12.20;74.40
63013;DHT22;62113;45.624;11.700;2024-01-06T11:50:31;12.20;74.30
63013;DHT22;62113;45.624;11.700;2024-01-06T11:52:57;12.20;74.30
63013;DHT22;62113;45.624;11.700;2024-01-06T11:55:25;12.20;74.30
63013;DHT22;62113;45.624;11.700;2024-01-06T11:57:53;12.20;74.30
63013;DHT22;62113;45.624;11.700;2024-01-06T12:00:19;12.20;74.40
63013;DHT22;62113;45.624;11.700;2024-01-06T12:02:45;12.20;74.40
63013;DHT22;62113;45.624;11.700;2024-01-06T12:05:18;12.20;74.40
63013;DHT22;62113;45.624;11.700;2024-01-06T12:07:53;12.20;74.50
63013;DHT22;62113;45.624;11.700;2024-01-06T12:10:20;12.20;74.40
63013;DHT22;62113;45.624;11.700;2024-01-06T12:13:04;12.20;74.40
63013;DHT22;62113;45.624;11.700;2024-01-06T12:15:31;12.20;74.40
63013;DHT22;62113;45.624;11.700;2024-01-06T12:17:57;12.30;74.40
63013;DHT22;62113;45.624;11.700;2024-01-06T12:20:24;12.30;74.40
63013;DHT22;62113;45.624;11.700;2024-01-06T12:22:53;12.30;74.40
63013;DHT22;62113;45.624;11.700;2024-01-06T12:25:21;12.30;74.40
63013;DHT22;62113;45.624;11.700;2024-01-06T12:27:48;12.30;74.30
63013;DHT22;62113;45.624;11.700;2024-01-06T12:30:14;12.30;74.30
63013;DHT22;62113;45.624;11.700;2024-01-06T12:32:45;12.30;74.30
63013;DHT22;62113;45.624;11.700;2024-01-06T12:35:12;12.30;74.30
63013;DHT22;62113;45.624;11.700;2024-01-06T12:37:38;12.20;74.30
63013;DHT22;62113;45.624;11.700;2024-01-06T12:40:05;12.20;74.30
63013;DHT22;62113;45.624;11.700;2024-01-06T12:42:31;12.20;74.40
63013;DHT22;62113;45.624;11.700;2024-01-06T12:44:56;12.30;74.30
63013;DHT22;62113;45.624;11.700;2024-01-06T12:47:22;12.20;74.30
63013;DHT22;62113;45.624;11.700;2024-01-06T12:49:48;12.20;74.30
63013;DHT22;62113;45.624;11.700;2024-01-06T12:52:14;12.20;74.30
63013;DHT22;62113;45.624;11.700;2024-01-06T12:54:40;12.20;74.30
63013;DHT22;62113;45.624;11.700;2024-01-06T12:57:07;12.20;74.30
63013;DHT22;62113;45.624;11.700;2024-01-06T12:59:33;12.30;74.30
63013;DHT22;62113;45.624;11.700;2024-01-06T13:01:58;12.20;74.30
63013;DHT22;62113;45.624;11.700;2024-01-06T13:04:24;12.20;74.20
63013;DHT22;62113;45.624;11.700;2024-01-06T13:06:50;12.20;74.20
63013;DHT22;62113;45.624;11.700;2024-01-06T13:09:16;12.30;74.20
63013;DHT22;62113;45.624;11.700;2024-01-06T13:11:42;12.30;74.20
63013;DHT22;62113;45.624;11.700;2024-01-06T13:14:08;12.30;74.20
63013;DHT22;62113;45.624;11.700;2024-01-06T13:16:34;12.30;74.10
63013;DHT22;62113;45.624;11.700;2024-01-06T13:19:01;12.30;74.10
63013;DHT22;62113;45.624;11.700;2024-01-06T13:21:27;12.30;74.00
63013;DHT22;62113;45.624;11.700;2024-01-06T13:23:54;12.30;74.00
63013;DHT22;62113;45.624;11.700;2024-01-06T13:26:26;12.30;73.90
63013;DHT22;62113;45.624;11.700;2024-01-06T13:28:53;12.30;73.90
63013;DHT22;62113;45.624;11.700;2024-01-06T13:31:19;12.30;73.90
63013;DHT22;62113;45.624;11.700;2024-01-06T13:33:44;12.40;73.80
63013;DHT22;62113;45.624;11.700;2024-01-06T13:36:10;12.40;73.80
63013;DHT22;62113;45.624;11.700;2024-01-06T13:38:35;12.30;73.80
63013;DHT22;62113;45.624;11.700;2024-01-06T13:41:01;12.50;73.40
63013;DHT22;62113;45.624;11.700;2024-01-06T13:43:28;12.60;73.20
63013;DHT22;62113;45.624;11.700;2024-01-06T13:45:54;12.50;73.40
63013;DHT22;62113;45.624;11.700;2024-01-06T13:48:20;12.70;72.90
63013;DHT22;62113;45.624;11.700;2024-01-06T13:50:46;12.70;72.70
63013;DHT22;62113;45.624;11.700;2024-01-06T13:53:12;12.70;72.70
63013;DHT22;62113;45.624;11.700;2024-01-06T13:55:38;12.70;72.60
63013;DHT22;62113;45.624;11.700;2024-01-06T13:58:03;12.70;72.60
63013;DHT22;62113;45.624;11.700;2024-01-06T14:00:29;12.70;72.60
63013;DHT22;62113;45.624;11.700;2024-01-06T14:02:55;12.70;72.60
63013;DHT22;62113;45.624;11.700;2024-01-06T14:05:22;12.70;72.50
63013;DHT22;62113;45.624;11.700;2024-01-06T14:07:48;12.70;72.50
63013;DHT22;62113;45.624;11.700;2024-01-06T14:10:16;12.70;72.40
63013;DHT22;62113;45.624;11.700;2024-01-06T14:12:41;12.70;72.40
63013;DHT22;62113;45.624;11.700;2024-01-06T14:15:08;12.70;72.40
63013;DHT22;62113;45.624;11.700;2024-01-06T14:17:34;12.70;72.40
63013;DHT22;62113;45.624;11.700;2024-01-06T14:19:59;12.70;72.40
63013;DHT22;62113;45.624;11.700;2024-01-06T14:22:26;12.70;72.40
63013;DHT22;62113;45.624;11.700;2024-01-06T14:24:52;12.70;72.40
63013;DHT22;62113;45.624;11.700;2024-01-06T14:27:17;12.70;72.40
63013;DHT22;62113;45.624;11.700;2024-01-06T14:29:43;12.70;72.50
63013;DHT22;62113;45.624;11.700;2024-01-06T14:32:09;12.70;72.50
63013;DHT22;62113;45.624;11.700;2024-01-06T14:34:34;12.70;72.50
63013;DHT22;62113;45.624;11.700;2024-01-06T14:37:00;12.70;72.60
63013;DHT22;62113;45.624;11.700;2024-01-06T14:39:25;12.70;72.60
63013;DHT22;62113;45.624;11.700;2024-01-06T14:41:51;12.70;72.60
63013;DHT22;62113;45.624;11.700;2024-01-06T14:44:17;12.70;72.70
63013;DHT22;62113;45.624;11.700;2024-01-06T14:46:48;12.70;72.80
63013;DHT22;62113;45.624;11.700;2024-01-06T14:49:18;12.70;72.80
63013;DHT22;62113;45.624;11.700;2024-01-06T14:51:44;12.70;72.80
63013;DHT22;62113;45.624;11.700;2024-01-06T14:54:10;12.70;72.80
63013;DHT22;62113;45.624;11.700;2024-01-06T14:56:39;12.70;72.80
63013;DHT22;62113;45.624;11.700;2024-01-06T14:59:06;12.70;72.70
63013;DHT22;62113;45.624;11.700;2024-01-06T15:01:32;12.80;72.60
63013;DHT22;62113;45.624;11.700;2024-01-06T15:03:57;12.80;72.40
63013;DHT22;62113;45.624;11.700;2024-01-06T15:06:23;12.80;72.30
63013;DHT22;62113;45.624;11.700;2024-01-06T15:08:49;12.80;72.30
63013;DHT22;62113;45.624;11.700;2024-01-06T15:11:15;12.80;72.20
63013;DHT22;62113;45.624;11.700;2024-01-06T15:13:41;12.80;72.20
63013;DHT22;62113;45.624;11.700;2024-01-06T15:16:07;12.80;72.20
63013;DHT22;62113;45.624;11.700;2024-01-06T15:18:33;12.80;72.20